sensor_id;sensor_type;location;lat;lon;timestamp;temperature;humidity
57030;DHT22;42920;45.306;20.448;2023-04-25T00:01:05;384.20;2329.60
57030;DHT22;42920;45.306;20.448;2023-04-25T00:03:31;384.20;2329.60
57030;DHT22;42920;45.306;20.448;2023-04-25T00:05:58;384.20;2329.60
57030;DHT22;42920;45.306;20.448;2023-04-25T00:08:27;384.20;2329.60
57030;DHT22;42920;45.306;20.448;2023-04-25T00:10:52;384.20;2329.60
57030;DHT22;42920;45.306;20.448;2023-04-25T00:13:18;384.10;2329.60
57030;DHT22;42920;45.306;20.448;2023-04-25T00:15:44;384.20;2329.60
57030;DHT22;42920;45.306;20.448;2023-04-25T00:18:11;384.20;2329.60
57030;DHT22;42920;45.306;20.448;2023-04-25T00:20:37;384.30;2329.60
57030;DHT22;42920;45.306;20.448;2023-04-25T00:23:02;384.30;2329.60
57030;DHT22;42920;45.306;20.448;2023-04-25T00:25:28;384.20;2329.60
57030;DHT22;42920;45.306;20.448;2023-04-25T00:27:54;384.30;2329.60
57030;DHT22;42920;45.306;20.448;2023-04-25T00:30:19;384.30;2329.60
57030;DHT22;42920;45.306;20.448;2023-04-25T00:32:45;384.30;2329.60
57030;DHT22;42920;45.306;20.448;2023-04-25T00:35:11;384.30;2329.60
57030;DHT22;42920;45.306;20.448;2023-04-25T00:37:36;384.30;2329.60
57030;DHT22;42920;45.306;20.448;2023-04-25T00:40:04;384.20;2329.60
57030;DHT22;42920;45.306;20.448;2023-04-25T00:42:31;384.10;2329.60
57030;DHT22;42920;45.306;20.448;2023-04-25T00:44:58;384.10;2329.60
57030;DHT22;42920;45.306;20.448;2023-04-25T00:47:24;384.10;2329.60
57030;DHT22;42920;45.306;20.448;2023-04-25T00:49:50;384.10;2329.60
57030;DHT22;42920;45.306;20.448;2023-04-25T00:52:16;384.20;2329.60
57030;DHT22;42920;45.306;20.448;2023-04-25T00:54:42;384.20;2329.60
57030;DHT22;42920;45.306;20.448;2023-04-25T00:57:08;384.20;2329.60
57030;DHT22;42920;45.306;20.448;2023-04-25T00:59:33;384.20;2329.60
57030;DHT22;42920;45.306;20.448;2023-04-25T01:01:59;384.20;2329.60
57030;DHT22;42920;45.306;20.448;2023-04-25T01:04:26;384.10;2329.60
57030;DHT22;42920;45.306;20.448;2023-04-25T01:06:52;384.20;2329.60
57030;DHT22;42920;45.306;20.448;2023-04-25T01:09:17;384.20;2329.60
57030;DHT22;42920;45.306;20.448;2023-04-25T01:11:44;384.20;1945.60
57030;DHT22;42920;45.306;20.448;2023-04-25T01:14:10;384.30;2329.60
57030;DHT22;42920;45.306;20.448;2023-04-25T01:16:36;384.30;2329.60
57030;DHT22;42920;45.306;20.448;2023-04-25T01:19:04;384.30;2329.60
57030;DHT22;42920;45.306;20.448;2023-04-25T01:21:30;384.30;2329.60
57030;DHT22;42920;45.306;20.448;2023-04-25T01:23:56;384.40;2329.60
57030;DHT22;42920;45.306;20.448;2023-04-25T01:26:22;384.40;2329.60
57030;DHT22;42920;45.306;20.448;2023-04-25T01:28:47;384.40;2329.60
57030;DHT22;42920;45.306;20.448;2023-04-25T01:31:14;384.40;2329.60
57030;DHT22;42920;45.306;20.448;2023-04-25T01:33:40;384.30;2048.00
57030;DHT22;42920;45.306;20.448;2023-04-25T01:36:05;384.30;2022.40
57030;DHT22;42920;45.306;20.448;2023-04-25T01:38:31;384.30;2099.20
57030;DHT22;42920;45.306;20.448;2023-04-25T01:40:57;384.30;2304.00
57030;DHT22;42920;45.306;20.448;2023-04-25T01:43:23;384.40;2329.60
57030;DHT22;42920;45.306;20.448;2023-04-25T01:45:49;384.30;2252.80
57030;DHT22;42920;45.306;20.448;2023-04-25T01:48:15;384.30;2329.60
57030;DHT22;42920;45.306;20.448;2023-04-25T01:50:40;384.30;2329.60
57030;DHT22;42920;45.306;20.448;2023-04-25T01:53:06;384.30;2329.60
57030;DHT22;42920;45.306;20.448;2023-04-25T01:55:32;384.30;2329.60
57030;DHT22;42920;45.306;20.448;2023-04-25T01:57:57;384.30;2329.60
57030;DHT22;42920;45.306;20.448;2023-04-25T02:00:24;384.30;2329.60
57030;DHT22;42920;45.306;20.448;2023-04-25T02:02:49;384.30;2329.60
57030;DHT22;42920;45.306;20.448;2023-04-25T02:05:16;384.30;2329.60
57030;DHT22;42920;45.306;20.448;2023-04-25T02:07:42;384.30;2329.60
57030;DHT22;42920;45.306;20.448;2023-04-25T02:10:08;384.30;2329.60
57030;DHT22;42920;45.306;20.448;2023-04-25T02:12:35;384.30;2329.60
57030;DHT22;42920;45.306;20.448;2023-04-25T02:15:00;384.30;2329.60
57030;DHT22;42920;45.306;20.448;2023-04-25T02:17:26;384.30;2099.20
57030;DHT22;42920;45.306;20.448;2023-04-25T02:19:52;384.20;2227.20
57030;DHT22;42920;45.306;20.448;2023-04-25T02:22:17;384.10;2278.40
57030;DHT22;42920;45.306;20.448;2023-04-25T02:24:43;384.10;2278.40
57030;DHT22;42920;45.306;20.448;2023-04-25T02:27:08;384.10;2176.00
57030;DHT22;42920;45.306;20.448;2023-04-25T02:29:34;384.10;2329.60
57030;DHT22;42920;45.306;20.448;2023-04-25T02:32:00;384.10;2227.20
57030;DHT22;42920;45.306;20.448;2023-04-25T02:34:25;384.10;2022.40
57030;DHT22;42920;45.306;20.448;2023-04-25T02:36:51;384.10;2329.60
57030;DHT22;42920;45.306;20.448;2023-04-25T02:39:16;384.10;2329.60
57030;DHT22;42920;45.306;20.448;2023-04-25T02:41:42;384.10;2329.60
57030;DHT22;42920;45.306;20.448;2023-04-25T02:44:08;384.10;2329.60
57030;DHT22;42920;45.306;20.448;2023-04-25T02:46:33;384.20;2329.60
57030;DHT22;42920;45.306;20.448;2023-04-25T02:48:59;384.20;2329.60
57030;DHT22;42920;45.306;20.448;2023-04-25T02:51:24;384.20;2329.60
57030;DHT22;42920;45.306;20.448;2023-04-25T02:53:50;384.10;2329.60
57030;DHT22;42920;45.306;20.448;2023-04-25T02:56:15;384.10;2329.60
57030;DHT22;42920;45.306;20.448;2023-04-25T02:58:41;384.10;2329.60
57030;DHT22;42920;45.306;20.448;2023-04-25T03:01:07;384.10;2329.60
57030;DHT22;42920;45.306;20.448;2023-04-25T03:03:32;384.10;2329.60
57030;DHT22;42920;45.306;20.448;2023-04-25T03:05:58;384.10;2329.60
57030;DHT22;42920;45.306;20.448;2023-04-25T03:08:23;384.10;2329.60
57030;DHT22;42920;45.306;20.448;2023-04-25T03:10:50;384.00;2329.60
57030;DHT22;42920;45.306;20.448;2023-04-25T03:13:17;384.10;2329.60
57030;DHT22;42920;45.306;20.448;2023-04-25T03:15:43;384.00;2329.60
57030;DHT22;42920;45.306;20.448;2023-04-25T03:18:08;384.00;2329.60
57030;DHT22;42920;45.306;20.448;2023-04-25T03:20:34;384.00;2329.60
57030;DHT22;42920;45.306;20.448;2023-04-25T03:22:59;384.00;2329.60
57030;DHT22;42920;45.306;20.448;2023-04-25T03:25:25;384.00;2329.60
57030;DHT22;42920;45.306;20.448;2023-04-25T03:27:50;359.30;2329.60
57030;DHT22;42920;45.306;20.448;2023-04-25T03:30:16;359.30;2329.60
57030;DHT22;42920;45.306;20.448;2023-04-25T03:32:41;359.30;1945.60
57030;DHT22;42920;45.306;20.448;2023-04-25T03:35:07;359.30;1971.20
57030;DHT22;42920;45.306;20.448;2023-04-25T03:37:33;359.30;1996.80
57030;DHT22;42920;45.306;20.448;2023-04-25T03:39:58;359.30;2022.40
57030;DHT22;42920;45.306;20.448;2023-04-25T03:42:24;359.20;1996.80
57030;DHT22;42920;45.306;20.448;2023-04-25T03:44:51;359.30;2201.60
57030;DHT22;42920;45.306;20.448;2023-04-25T03:47:16;359.20;2176.00
57030;DHT22;42920;45.306;20.448;2023-04-25T03:49:42;359.30;2329.60
57030;DHT22;42920;45.306;20.448;2023-04-25T03:52:07;359.30;2329.60
57030;DHT22;42920;45.306;20.448;2023-04-25T03:54:33;359.30;2329.60
57030;DHT22;42920;45.306;20.448;2023-04-25T03:56:58;359.30;2329.60
57030;DHT22;42920;45.306;20.448;2023-04-25T03:59:24;359.30;2201.60
57030;DHT22;42920;45.306;20.448;2023-04-25T04:01:51;359.30;2329.60
57030;DHT22;42920;45.306;20.448;2023-04-25T04:04:17;359.20;2329.60
57030;DHT22;42920;45.306;20.448;2023-04-25T04:06:43;359.30;2329.60
57030;DHT22;42920;45.306;20.448;2023-04-25T04:09:08;359.30;2329.60
57030;DHT22;42920;45.306;20.448;2023-04-25T04:11:36;359.30;2329.60
57030;DHT22;42920;45.306;20.448;2023-04-25T04:14:06;359.30;2329.60
57030;DHT22;42920;45.306;20.448;2023-04-25T04:16:32;359.20;2329.60
57030;DHT22;42920;45.306;20.448;2023-04-25T04:18:58;359.00;2329.60
57030;DHT22;42920;45.306;20.448;2023-04-25T04:21:24;358.80;2329.60
57030;DHT22;42920;45.306;20.448;2023-04-25T04:23:50;358.80;2329.60
57030;DHT22;42920;45.306;20.448;2023-04-25T04:26:15;358.80;2329.60
57030;DHT22;42920;45.306;20.448;2023-04-25T04:28:43;358.70;2329.60
57030;DHT22;42920;45.306;20.448;2023-04-25T04:31:11;358.50;2329.60
57030;DHT22;42920;45.306;20.448;2023-04-25T04:33:37;358.50;2329.60
57030;DHT22;42920;45.306;20.448;2023-04-25T04:36:03;358.40;2329.60
57030;DHT22;42920;45.306;20.448;2023-04-25T04:38:29;333.60;2329.60
57030;DHT22;42920;45.306;20.448;2023-04-25T04:40:55;333.60;2329.60
57030;DHT22;42920;45.306;20.448;2023-04-25T04:43:21;333.70;2329.60
57030;DHT22;42920;45.306;20.448;2023-04-25T04:45:48;333.60;2329.60
57030;DHT22;42920;45.306;20.448;2023-04-25T04:48:14;333.50;2329.60
57030;DHT22;42920;45.306;20.448;2023-04-25T04:50:40;333.50;2329.60
57030;DHT22;42920;45.306;20.448;2023-04-25T04:53:06;333.40;2329.60
57030;DHT22;42920;45.306;20.448;2023-04-25T04:55:32;333.40;2329.60
57030;DHT22;42920;45.306;20.448;2023-04-25T04:57:58;333.40;2329.60
57030;DHT22;42920;45.306;20.448;2023-04-25T05:00:23;333.40;2329.60
57030;DHT22;42920;45.306;20.448;2023-04-25T05:02:49;333.20;2329.60
57030;DHT22;42920;45.306;20.448;2023-04-25T05:05:14;333.30;2329.60
57030;DHT22;42920;45.306;20.448;2023-04-25T05:07:40;333.20;2329.60
57030;DHT22;42920;45.306;20.448;2023-04-25T05:10:06;333.20;2329.60
57030;DHT22;42920;45.306;20.448;2023-04-25T05:12:31;333.20;2329.60
57030;DHT22;42920;45.306;20.448;2023-04-25T05:14:57;333.20;2329.60
57030;DHT22;42920;45.306;20.448;2023-04-25T05:17:22;333.40;2329.60
57030;DHT22;42920;45.306;20.448;2023-04-25T05:19:48;333.20;2329.60
57030;DHT22;42920;45.306;20.448;2023-04-25T05:22:13;333.20;2329.60
57030;DHT22;42920;45.306;20.448;2023-04-25T05:24:39;333.30;2329.60
57030;DHT22;42920;45.306;20.448;2023-04-25T05:27:05;333.30;2329.60
57030;DHT22;42920;45.306;20.448;2023-04-25T05:29:30;333.20;2329.60
57030;DHT22;42920;45.306;20.448;2023-04-25T05:31:56;333.30;2329.60
57030;DHT22;42920;45.306;20.448;2023-04-25T05:34:22;333.30;2329.60
57030;DHT22;42920;45.306;20.448;2023-04-25T05:36:47;333.30;2329.60
57030;DHT22;42920;45.306;20.448;2023-04-25T05:39:15;333.30;2329.60
57030;DHT22;42920;45.306;20.448;2023-04-25T05:41:42;333.30;2048.00
57030;DHT22;42920;45.306;20.448;2023-04-25T05:44:07;333.20;2329.60
57030;DHT22;42920;45.306;20.448;2023-04-25T05:46:33;333.30;2329.60
57030;DHT22;42920;45.306;20.448;2023-04-25T05:48:58;333.30;2329.60
57030;DHT22;42920;45.306;20.448;2023-04-25T05:51:24;333.20;2329.60
57030;DHT22;42920;45.306;20.448;2023-04-25T05:53:50;333.30;2329.60
57030;DHT22;42920;45.306;20.448;2023-04-25T05:56:15;333.30;2329.60
57030;DHT22;42920;45.306;20.448;2023-04-25T05:58:41;333.20;2329.60
57030;DHT22;42920;45.306;20.448;2023-04-25T06:01:06;333.20;2329.60
57030;DHT22;42920;45.306;20.448;2023-04-25T06:03:32;333.20;2329.60
57030;DHT22;42920;45.306;20.448;2023-04-25T06:05:57;333.20;2329.60
57030;DHT22;42920;45.306;20.448;2023-04-25T06:08:23;333.20;2329.60
57030;DHT22;42920;45.306;20.448;2023-04-25T06:10:48;333.10;2329.60
57030;DHT22;42920;45.306;20.448;2023-04-25T06:13:14;333.10;2329.60
57030;DHT22;42920;45.306;20.448;2023-04-25T06:15:40;333.10;2329.60
57030;DHT22;42920;45.306;20.448;2023-04-25T06:18:06;333.20;2329.60
57030;DHT22;42920;45.306;20.448;2023-04-25T06:20:32;333.20;2329.60
57030;DHT22;42920;45.306;20.448;2023-04-25T06:22:57;333.20;2329.60
57030;DHT22;42920;45.306;20.448;2023-04-25T06:25:23;333.10;2329.60
57030;DHT22;42920;45.306;20.448;2023-04-25T06:27:48;333.10;2329.60
57030;DHT22;42920;45.306;20.448;2023-04-25T06:30:14;333.00;2329.60
57030;DHT22;42920;45.306;20.448;2023-04-25T06:32:40;333.20;2329.60
57030;DHT22;42920;45.306;20.448;2023-04-25T06:35:06;333.20;2329.60
57030;DHT22;42920;45.306;20.448;2023-04-25T06:37:31;333.20;2329.60
57030;DHT22;42920;45.306;20.448;2023-04-25T06:39:57;333.10;2329.60
57030;DHT22;42920;45.306;20.448;2023-04-25T06:42:23;333.20;2329.60
57030;DHT22;42920;45.306;20.448;2023-04-25T06:44:48;333.20;2329.60
57030;DHT22;42920;45.306;20.448;2023-04-25T06:47:14;333.10;2329.60
57030;DHT22;42920;45.306;20.448;2023-04-25T06:49:40;333.20;2329.60
57030;DHT22;42920;45.306;20.448;2023-04-25T06:52:05;333.20;2329.60
57030;DHT22;42920;45.306;20.448;2023-04-25T06:54:31;333.20;2329.60
57030;DHT22;42920;45.306;20.448;2023-04-25T06:56:56;333.10;2329.60
57030;DHT22;42920;45.306;20.448;2023-04-25T06:59:22;333.20;2329.60
57030;DHT22;42920;45.306;20.448;2023-04-25T07:01:47;333.20;2329.60
57030;DHT22;42920;45.306;20.448;2023-04-25T07:04:13;333.20;2329.60
57030;DHT22;42920;45.306;20.448;2023-04-25T07:06:38;333.20;2329.60
57030;DHT22;42920;45.306;20.448;2023-04-25T07:09:10;333.20;2329.60
57030;DHT22;42920;45.306;20.448;2023-04-25T07:11:36;333.20;2329.60
57030;DHT22;42920;45.306;20.448;2023-04-25T07:14:02;333.20;2329.60
57030;DHT22;42920;45.306;20.448;2023-04-25T07:16:28;333.10;2329.60
57030;DHT22;42920;45.306;20.448;2023-04-25T07:18:53;333.10;2329.60
57030;DHT22;42920;45.306;20.448;2023-04-25T07:21:19;333.10;2329.60
57030;DHT22;42920;45.306;20.448;2023-04-25T07:23:44;333.20;2329.60
57030;DHT22;42920;45.306;20.448;2023-04-25T07:26:10;333.20;2329.60
57030;DHT22;42920;45.306;20.448;2023-04-25T07:28:35;333.20;2329.60
57030;DHT22;42920;45.306;20.448;2023-04-25T07:31:01;333.20;2329.60
57030;DHT22;42920;45.306;20.448;2023-04-25T07:33:27;333.20;2329.60
57030;DHT22;42920;45.306;20.448;2023-04-25T07:35:53;333.30;2329.60
57030;DHT22;42920;45.306;20.448;2023-04-25T07:38:18;333.20;2329.60
57030;DHT22;42920;45.306;20.448;2023-04-25T07:40:44;333.20;2329.60
57030;DHT22;42920;45.306;20.448;2023-04-25T07:43:09;333.20;2329.60
57030;DHT22;42920;45.306;20.448;2023-04-25T07:45:37;333.30;2329.60
57030;DHT22;42920;45.306;20.448;2023-04-25T07:48:03;333.40;2329.60
57030;DHT22;42920;45.306;20.448;2023-04-25T07:50:28;333.40;2329.60
57030;DHT22;42920;45.306;20.448;2023-04-25T07:52:54;333.50;2329.60
57030;DHT22;42920;45.306;20.448;2023-04-25T07:55:19;333.50;2329.60
57030;DHT22;42920;45.306;20.448;2023-04-25T07:57:45;333.50;2329.60
57030;DHT22;42920;45.306;20.448;2023-04-25T08:00:11;333.60;2329.60
57030;DHT22;42920;45.306;20.448;2023-04-25T08:02:37;333.70;2329.60
57030;DHT22;42920;45.306;20.448;2023-04-25T08:05:02;358.40;2329.60
57030;DHT22;42920;45.306;20.448;2023-04-25T08:07:28;358.40;2329.60
57030;DHT22;42920;45.306;20.448;2023-04-25T08:09:54;358.40;2329.60
57030;DHT22;42920;45.306;20.448;2023-04-25T08:12:19;358.50;2329.60
57030;DHT22;42920;45.306;20.448;2023-04-25T08:14:45;358.50;2329.60
57030;DHT22;42920;45.306;20.448;2023-04-25T08:17:10;358.50;2329.60
57030;DHT22;42920;45.306;20.448;2023-04-25T08:19:36;358.50;2329.60
57030;DHT22;42920;45.306;20.448;2023-04-25T08:22:02;358.50;2329.60
57030;DHT22;42920;45.306;20.448;2023-04-25T08:24:28;358.50;2329.60
57030;DHT22;42920;45.306;20.448;2023-04-25T08:26:54;358.50;2329.60
57030;DHT22;42920;45.306;20.448;2023-04-25T08:29:19;358.60;2329.60
57030;DHT22;42920;45.306;20.448;2023-04-25T08:31:45;358.70;2329.60
57030;DHT22;42920;45.306;20.448;2023-04-25T08:34:10;358.70;2329.60
57030;DHT22;42920;45.306;20.448;2023-04-25T08:36:36;358.70;2329.60
57030;DHT22;42920;45.306;20.448;2023-04-25T08:39:01;333.60;2329.60
57030;DHT22;42920;45.306;20.448;2023-04-25T08:41:27;358.60;2329.60
57030;DHT22;42920;45.306;20.448;2023-04-25T08:43:53;358.70;2329.60
57030;DHT22;42920;45.306;20.448;2023-04-25T08:46:18;358.70;2329.60
57030;DHT22;42920;45.306;20.448;2023-04-25T08:48:45;358.70;2329.60
57030;DHT22;42920;45.306;20.448;2023-04-25T08:51:15;358.70;2329.60
57030;DHT22;42920;45.306;20.448;2023-04-25T08:53:41;358.70;2329.60
57030;DHT22;42920;45.306;20.448;2023-04-25T08:56:08;358.80;2329.60
57030;DHT22;42920;45.306;20.448;2023-04-25T08:58:35;358.80;2329.60
57030;DHT22;42920;45.306;20.448;2023-04-25T09:01:01;359.00;2329.60
57030;DHT22;42920;45.306;20.448;2023-04-25T09:03:26;359.00;2329.60
57030;DHT22;42920;45.306;20.448;2023-04-25T09:05:52;359.10;2329.60
57030;DHT22;42920;45.306;20.448;2023-04-25T09:08:18;359.10;2329.60
57030;DHT22;42920;45.306;20.448;2023-04-25T09:10:43;359.00;2329.60
57030;DHT22;42920;45.306;20.448;2023-04-25T09:13:10;359.20;2329.60
57030;DHT22;42920;45.306;20.448;2023-04-25T09:15:50;359.20;2329.60
57030;DHT22;42920;45.306;20.448;2023-04-25T09:18:27;359.20;2329.60
57030;DHT22;42920;45.306;20.448;2023-04-25T09:20:53;359.30;2329.60
57030;DHT22;42920;45.306;20.448;2023-04-25T09:23:19;359.30;2329.60
57030;DHT22;42920;45.306;20.448;2023-04-25T09:25:53;384.00;2329.60
57030;DHT22;42920;45.306;20.448;2023-04-25T09:28:25;384.10;2329.60
57030;DHT22;42920;45.306;20.448;2023-04-25T09:30:55;384.10;2329.60
57030;DHT22;42920;45.306;20.448;2023-04-25T09:33:23;384.20;2329.60
57030;DHT22;42920;45.306;20.448;2023-04-25T09:35:52;384.30;2329.60
57030;DHT22;42920;45.306;20.448;2023-04-25T09:38:20;384.30;2329.60
57030;DHT22;42920;45.306;20.448;2023-04-25T09:40:46;384.40;2329.60
57030;DHT22;42920;45.306;20.448;2023-04-25T09:43:24;384.40;2329.60
57030;DHT22;42920;45.306;20.448;2023-04-25T09:45:50;384.50;2329.60
57030;DHT22;42920;45.306;20.448;2023-04-25T09:48:19;384.70;2329.60
57030;DHT22;42920;45.306;20.448;2023-04-25T09:50:47;384.80;2329.60
57030;DHT22;42920;45.306;20.448;2023-04-25T09:53:28;384.90;2329.60
57030;DHT22;42920;45.306;20.448;2023-04-25T09:55:54;384.90;2329.60
57030;DHT22;42920;45.306;20.448;2023-04-25T09:58:20;409.60;2355.20
57030;DHT22;42920;45.306;20.448;2023-04-25T10:00:46;409.70;2355.20
57030;DHT22;42920;45.306;20.448;2023-04-25T10:03:12;409.80;2355.20
57030;DHT22;42920;45.306;20.448;2023-04-25T10:05:39;409.80;2355.20
57030;DHT22;42920;45.306;20.448;2023-04-25T10:08:06;409.70;2355.20
57030;DHT22;42920;45.306;20.448;2023-04-25T10:10:31;410.20;2355.20
57030;DHT22;42920;45.306;20.448;2023-04-25T10:13:03;409.80;2355.20
57030;DHT22;42920;45.306;20.448;2023-04-25T10:15:28;409.90;2355.20
57030;DHT22;42920;45.306;20.448;2023-04-25T10:17:54;409.90;2355.20
57030;DHT22;42920;45.306;20.448;2023-04-25T10:20:21;410.00;2355.20
57030;DHT22;42920;45.306;20.448;2023-04-25T10:22:47;410.00;2355.20
57030;DHT22;42920;45.306;20.448;2023-04-25T10:25:13;410.00;2355.20
57030;DHT22;42920;45.306;20.448;2023-04-25T10:27:39;410.20;2355.20
57030;DHT22;42920;45.306;20.448;2023-04-25T10:32:31;410.20;2355.20
57030;DHT22;42920;45.306;20.448;2023-04-25T10:35:06;410.30;2355.20
57030;DHT22;42920;45.306;20.448;2023-04-25T10:37:35;410.30;2355.20
57030;DHT22;42920;45.306;20.448;2023-04-25T10:40:07;410.30;2355.20
57030;DHT22;42920;45.306;20.448;2023-04-25T10:42:33;410.50;2355.20
57030;DHT22;42920;45.306;20.448;2023-04-25T10:45:04;435.20;2355.20
57030;DHT22;42920;45.306;20.448;2023-04-25T10:47:36;435.30;2355.20
57030;DHT22;42920;45.306;20.448;2023-04-25T10:50:05;435.20;2355.20
57030;DHT22;42920;45.306;20.448;2023-04-25T10:52:32;410.50;2355.20
57030;DHT22;42920;45.306;20.448;2023-04-25T10:54:58;410.50;2355.20
57030;DHT22;42920;45.306;20.448;2023-04-25T10:58:34;410.30;2355.20
57030;DHT22;42920;45.306;20.448;2023-04-25T11:01:01;435.20;2355.20
57030;DHT22;42920;45.306;20.448;2023-04-25T11:03:27;435.30;2355.20
57030;DHT22;42920;45.306;20.448;2023-04-25T11:05:53;435.30;2355.20
57030;DHT22;42920;45.306;20.448;2023-04-25T11:08:43;435.20;2355.20
57030;DHT22;42920;45.306;20.448;2023-04-25T11:11:13;435.20;2355.20
57030;DHT22;42920;45.306;20.448;2023-04-25T11:13:38;410.50;2355.20
57030;DHT22;42920;45.306;20.448;2023-04-25T11:16:07;410.40;2355.20
57030;DHT22;42920;45.306;20.448;2023-04-25T11:18:33;410.30;2355.20
57030;DHT22;42920;45.306;20.448;2023-04-25T11:21:00;410.30;2355.20
57030;DHT22;42920;45.306;20.448;2023-04-25T11:23:26;410.30;2355.20
57030;DHT22;42920;45.306;20.448;2023-04-25T11:25:52;435.20;2355.20
57030;DHT22;42920;45.306;20.448;2023-04-25T11:28:22;435.70;2355.20
57030;DHT22;42920;45.306;20.448;2023-04-25T11:30:49;436.00;2329.60
57030;DHT22;42920;45.306;20.448;2023-04-25T11:33:16;435.80;2355.20
57030;DHT22;42920;45.306;20.448;2023-04-25T11:35:42;435.70;2304.00
57030;DHT22;42920;45.306;20.448;2023-04-25T11:38:08;435.60;2252.80
57030;DHT22;42920;45.306;20.448;2023-04-25T11:40:35;435.60;2355.20
57030;DHT22;42920;45.306;20.448;2023-04-25T11:43:01;435.90;2355.20
57030;DHT22;42920;45.306;20.448;2023-04-25T11:45:28;460.80;2355.20
57030;DHT22;42920;45.306;20.448;2023-04-25T11:47:56;436.10;2355.20
57030;DHT22;42920;45.306;20.448;2023-04-25T11:50:21;436.00;2278.40
57030;DHT22;42920;45.306;20.448;2023-04-25T11:52:48;435.90;2355.20
57030;DHT22;42920;45.306;20.448;2023-04-25T11:55:18;436.10;2355.20
57030;DHT22;42920;45.306;20.448;2023-04-25T11:57:46;435.90;2252.80
57030;DHT22;42920;45.306;20.448;2023-04-25T12:00:19;461.00;2278.40
57030;DHT22;42920;45.306;20.448;2023-04-25T12:02:47;461.50;2099.20
57030;DHT22;42920;45.306;20.448;2023-04-25T12:05:16;461.20;2124.80
57030;DHT22;42920;45.306;20.448;2023-04-25T12:07:42;461.10;2124.80
57030;DHT22;42920;45.306;20.448;2023-04-25T12:10:09;460.90;2124.80
57030;DHT22;42920;45.306;20.448;2023-04-25T12:12:36;460.80;2124.80
57030;DHT22;42920;45.306;20.448;2023-04-25T12:15:16;436.10;2099.20
57030;DHT22;42920;45.306;20.448;2023-04-25T12:17:49;435.90;2227.20
57030;DHT22;42920;45.306;20.448;2023-04-25T12:20:18;435.80;2355.20
57030;DHT22;42920;45.306;20.448;2023-04-25T12:22:51;436.00;2304.00
57030;DHT22;42920;45.306;20.448;2023-04-25T12:28:16;461.00;2150.40
57030;DHT22;42920;45.306;20.448;2023-04-25T12:33:28;460.90;2150.40
57030;DHT22;42920;45.306;20.448;2023-04-25T12:35:54;436.10;2124.80
57030;DHT22;42920;45.306;20.448;2023-04-25T12:38:25;436.00;2124.80
57030;DHT22;42920;45.306;20.448;2023-04-25T12:40:51;435.90;2176.00
57030;DHT22;42920;45.306;20.448;2023-04-25T12:43:17;435.90;2124.80
57030;DHT22;42920;45.306;20.448;2023-04-25T12:45:44;435.90;2227.20
57030;DHT22;42920;45.306;20.448;2023-04-25T12:48:10;435.90;2278.40
57030;DHT22;42920;45.306;20.448;2023-04-25T12:50:35;435.80;2176.00
57030;DHT22;42920;45.306;20.448;2023-04-25T12:53:01;435.90;2278.40
57030;DHT22;42920;45.306;20.448;2023-04-25T12:55:27;460.90;2304.00
57030;DHT22;42920;45.306;20.448;2023-04-25T12:57:53;460.80;2355.20
57030;DHT22;42920;45.306;20.448;2023-04-25T13:00:18;461.50;2227.20
57030;DHT22;42920;45.306;20.448;2023-04-25T13:02:45;461.70;2099.20
57030;DHT22;42920;45.306;20.448;2023-04-25T13:05:12;486.40;2048.00
57030;DHT22;42920;45.306;20.448;2023-04-25T13:07:38;461.70;1996.80
57030;DHT22;42920;45.306;20.448;2023-04-25T13:10:05;486.40;1971.20
57030;DHT22;42920;45.306;20.448;2023-04-25T13:14:57;487.10;1792.00
57030;DHT22;42920;45.306;20.448;2023-04-25T13:17:23;512.10;1792.00
57030;DHT22;42920;45.306;20.448;2023-04-25T13:19:49;512.30;1664.00
57030;DHT22;42920;45.306;20.448;2023-04-25T13:22:14;512.30;1664.00
57030;DHT22;42920;45.306;20.448;2023-04-25T13:24:42;512.10;1612.80
57030;DHT22;42920;45.306;20.448;2023-04-25T13:27:08;512.00;1587.20
57030;DHT22;42920;45.306;20.448;2023-04-25T13:29:33;512.10;1612.80
57030;DHT22;42920;45.306;20.448;2023-04-25T13:32:01;512.10;1587.20
57030;DHT22;42920;45.306;20.448;2023-04-25T13:34:28;487.20;1587.20
57030;DHT22;42920;45.306;20.448;2023-04-25T13:36:54;512.10;1612.80
57030;DHT22;42920;45.306;20.448;2023-04-25T13:39:20;512.30;1587.20
57030;DHT22;42920;45.306;20.448;2023-04-25T13:41:45;512.60;1561.60
57030;DHT22;42920;45.306;20.448;2023-04-25T13:44:11;512.40;1561.60
57030;DHT22;42920;45.306;20.448;2023-04-25T13:46:37;512.20;1561.60
57030;DHT22;42920;45.306;20.448;2023-04-25T13:49:03;512.30;1561.60
57030;DHT22;42920;45.306;20.448;2023-04-25T13:51:29;512.50;1561.60
57030;DHT22;42920;45.306;20.448;2023-04-25T13:53:56;512.10;1561.60
57030;DHT22;42920;45.306;20.448;2023-04-25T13:56:21;487.20;1638.40
57030;DHT22;42920;45.306;20.448;2023-04-25T13:58:49;486.90;1664.00
57030;DHT22;42920;45.306;20.448;2023-04-25T14:01:15;486.60;1740.80
57030;DHT22;42920;45.306;20.448;2023-04-25T14:03:41;486.40;1792.00
57030;DHT22;42920;45.306;20.448;2023-04-25T14:06:07;461.60;1792.00
57030;DHT22;42920;45.306;20.448;2023-04-25T14:08:34;461.70;1792.00
57030;DHT22;42920;45.306;20.448;2023-04-25T14:11:00;486.60;1740.80
57030;DHT22;42920;45.306;20.448;2023-04-25T14:13:26;486.70;1792.00
57030;DHT22;42920;45.306;20.448;2023-04-25T14:15:52;486.90;1740.80
57030;DHT22;42920;45.306;20.448;2023-04-25T14:18:18;487.00;1740.80
57030;DHT22;42920;45.306;20.448;2023-04-25T14:20:45;487.30;1792.00
57030;DHT22;42920;45.306;20.448;2023-04-25T14:23:10;512.00;1715.20
57030;DHT22;42920;45.306;20.448;2023-04-25T14:25:36;512.00;1664.00
57030;DHT22;42920;45.306;20.448;2023-04-25T14:28:02;512.00;1715.20
57030;DHT22;42920;45.306;20.448;2023-04-25T14:30:28;487.30;1689.60
57030;DHT22;42920;45.306;20.448;2023-04-25T14:32:54;512.00;1715.20
57030;DHT22;42920;45.306;20.448;2023-04-25T14:35:20;512.10;1715.20
57030;DHT22;42920;45.306;20.448;2023-04-25T14:37:46;512.10;1715.20
57030;DHT22;42920;45.306;20.448;2023-04-25T14:40:13;512.20;1689.60
57030;DHT22;42920;45.306;20.448;2023-04-25T14:42:40;512.30;1664.00